Harmon, Arkansas
Current Conditions -  °F | °C
As of 1:53 PM on Sunday 21 Dec 2014 (Local Time) from KFYV Reporting Station
Overcast Overcast  
Wind Chill:   Ceiling: 2200
Heat Index:   Visibility: 10mi
Dew Point:   Wind: 13mph
Humidity: 73%   Direction: 190°S
Pressure: 29.94"   Gusts: NA
Location:  35.9902°N, 94.083°W
Report Text: KFYV 211953Z 19011KT 10SM BKN022 OVC040 08/03 A2994 RMK AO2 SLP140 T00780033
Loading
Personal Weather Stations






























Interactive Weather Map New forecast layout! Learn more

10-Day Weather Forecast

Advertisements
Track Severe Weather on mobile